Time;durP1;ratioP1;P1;durP2;ratioP2;P2;SDS_P1;SDS_P2;PMS_P1;PMS_P2;Temp;Humidity;BMP_temperature;BMP_pressure;BME280_temperature;BME280_humidity;BME280_pressure;Samples;Min_cycle;Max_cycle;Signal;HPM_P1;HPM_P2
2022/12/11 00:02:18;;;;;;;92.67;56.33;;;-0.20;21.20;;;;;;5072764;28;20173;-71
2022/12/11 00:04:43;;;;;;;80.97;38.83;;;-0.20;21.00;;;;;;5073187;28;20174;-71
2022/12/11 00:07:09;;;;;;;89.77;44.53;;;-0.20;21.00;;;;;;5072824;28;20687;-71
2022/12/11 00:09:34;;;;;;;83.30;42.20;;;-0.40;20.60;;;;;;5072673;28;20666;-71
2022/12/11 00:12:01;;;;;;;106.80;95.27;;;-0.60;20.70;;;;;;5072732;28;20184;-70
2022/12/11 00:14:27;;;;;;;90.50;52.95;;;-0.70;21.00;;;;;;5072836;28;20181;-70
2022/12/11 00:16:52;;;;;;;98.90;63.80;;;-0.90;21.50;;;;;;5072557;28;20207;-71
2022/12/11 00:19:18;;;;;;;89.13;49.80;;;-1.00;22.20;;;;;;5072608;28;20939;-69
2022/12/11 00:21:43;;;;;;;94.40;60.63;;;-1.10;23.00;;;;;;5088056;28;20170;-70
2022/12/11 00:24:09;;;;;;;88.27;47.23;;;-1.10;23.10;;;;;;5072819;28;20254;-69
2022/12/11 00:26:35;;;;;;;95.07;62.03;;;-1.00;23.30;;;;;;5072414;28;20653;-71
2022/12/11 00:29:00;;;;;;;83.20;44.30;;;-1.10;23.40;;;;;;5072894;28;20181;-69
2022/12/11 00:31:26;;;;;;;87.10;47.80;;;-1.10;24.20;;;;;;5072185;28;20188;-69
2022/12/11 00:33:51;;;;;;;92.03;55.57;;;-1.00;23.80;;;;;;5072613;28;20180;-70
2022/12/11 00:36:20;;;;;;;89.87;51.30;;;-0.80;23.50;;;;;;5072549;28;20212;-70
2022/12/11 00:38:47;;;;;;;100.13;66.10;;;-0.80;23.40;;;;;;5072839;28;20243;-70
2022/12/11 00:41:13;;;;;;;99.78;83.95;;;-0.70;23.20;;;;;;5072746;28;20701;-70
2022/12/11 00:43:39;;;;;;;102.57;69.20;;;-0.60;23.50;;;;;;5072436;28;20264;-70
2022/12/11 00:46:04;;;;;;;94.60;49.20;;;-0.70;23.00;;;;;;5073029;28;20271;-70
2022/12/11 00:48:30;;;;;;;92.30;53.20;;;-0.80;23.10;;;;;;5072589;28;20201;-70
2022/12/11 00:50:56;;;;;;;98.43;58.13;;;-0.90;23.40;;;;;;5072574;28;20185;-70
2022/12/11 00:53:21;;;;;;;93.57;56.77;;;-1.00;23.40;;;;;;5072181;28;20548;-70
2022/12/11 00:55:47;;;;;;;93.00;57.87;;;-1.10;23.60;;;;;;5072726;28;20181;-69
2022/12/11 00:58:13;;;;;;;91.53;61.47;;;-1.20;24.40;;;;;;5071904;28;20211;-70
2022/12/11 01:00:40;;;;;;;103.28;65.45;;;-1.10;24.50;;;;;;5072536;28;20184;-70
2022/12/11 01:03:06;;;;;;;93.82;60.30;;;-1.20;24.40;;;;;;5072068;28;20173;-70
2022/12/11 01:05:32;;;;;;;99.50;67.00;;;-1.20;24.40;;;;;;5072245;28;20725;-70
2022/12/11 01:07:58;;;;;;;100.43;70.78;;;-1.20;24.40;;;;;;5072345;28;20196;-70
2022/12/11 01:10:23;;;;;;;101.60;77.67;;;-1.20;25.30;;;;;;5072434;28;20536;-70
2022/12/11 01:12:56;;;;;;;98.43;63.17;;;-1.20;25.60;;;;;;5072147;28;20412;-70
2022/12/11 01:15:24;;;;;;;104.20;81.28;;;-1.30;26.00;;;;;;5072024;28;20183;-70
2022/12/11 01:17:50;;;;;;;97.40;82.95;;;-1.30;26.70;;;;;;5072002;28;20238;-70
2022/12/11 01:20:17;;;;;;;104.72;70.90;;;-1.30;26.80;;;;;;5072002;28;20187;-70
2022/12/11 01:22:43;;;;;;;107.88;88.85;;;-1.30;27.40;;;;;;5071784;28;20176;-70
2022/12/11 01:25:09;;;;;;;106.83;77.40;;;-1.30;27.10;;;;;;5072131;28;20187;-70
2022/12/11 01:27:35;;;;;;;107.07;82.97;;;-1.30;27.30;;;;;;5071975;28;20691;-70
2022/12/11 01:30:01;;;;;;;109.53;84.30;;;-1.30;27.30;;;;;;5072062;28;20189;-71
2022/12/11 01:32:27;;;;;;;99.67;83.20;;;-1.30;27.00;;;;;;5071950;28;20188;-70
2022/12/11 01:34:53;;;;;;;94.95;71.43;;;-1.20;26.50;;;;;;5072105;28;20244;-71
2022/12/11 01:37:20;;;;;;;103.30;90.07;;;-1.10;25.70;;;;;;5072002;28;20685;-71
2022/12/11 01:39:45;;;;;;;92.57;62.65;;;-1.00;26.00;;;;;;5072416;28;20179;-70
2022/12/11 01:42:17;;;;;;;100.13;86.83;;;-0.90;25.30;;;;;;5072100;28;20173;-71
2022/12/11 01:44:42;;;;;;;103.50;71.00;;;-0.90;24.90;;;;;;5075042;28;20183;-70
2022/12/11 01:47:08;;;;;;;95.57;69.37;;;-0.80;24.70;;;;;;5075464;28;20197;-71
2022/12/11 01:49:34;;;;;;;93.40;69.17;;;-0.70;24.70;;;;;;5075684;28;20238;-71
2022/12/11 01:52:20;;;;;;;105.90;75.30;;;-0.70;24.20;;;;;;5075230;28;20993;-71
2022/12/11 01:54:47;;;;;;;95.90;73.18;;;-0.60;24.20;;;;;;5075654;28;20194;-72
2022/12/11 01:57:14;;;;;;;100.82;79.43;;;-0.60;23.90;;;;;;5075078;28;20198;-71
2022/12/11 01:59:43;;;;;;;94.88;74.38;;;-0.60;23.80;;;;;;5075136;28;20184;-71
2022/12/11 02:02:26;;;;;;;98.75;73.25;;;-0.70;24.50;;;;;;5074793;28;20180;-70
2022/12/11 02:04:52;;;;;;;98.63;87.35;;;-0.70;24.20;;;;;;5075274;28;20203;-71
2022/12/11 02:07:17;;;;;;;107.23;95.93;;;-0.60;23.90;;;;;;5075192;28;20279;-71
2022/12/11 02:09:45;;;;;;;96.83;65.50;;;-0.70;23.80;;;;;;5075284;28;20211;-70
2022/12/11 02:12:34;;;;;;;97.05;57.45;;;-0.60;24.30;;;;;;5074742;28;20219;-70
2022/12/11 02:15:12;;;;;;;97.18;59.08;;;-0.60;24.10;;;;;;5075241;28;20189;-70
2022/12/11 02:18:01;;;;;;;94.45;53.08;;;-0.60;24.00;;;;;;5074823;28;20212;-71
2022/12/11 02:20:36;;;;;;;92.90;64.93;;;-0.50;23.70;;;;;;5074799;28;20172;-71
2022/12/11 02:23:05;;;;;;;102.57;80.78;;;-0.50;24.30;;;;;;5074938;28;20172;-71
2022/12/11 02:25:33;;;;;;;97.93;59.92;;;-0.60;23.80;;;;;;5074873;28;20179;-71
2022/12/11 02:28:26;;;;;;;97.82;66.63;;;-0.60;23.80;;;;;;5074608;28;20223;-70
2022/12/11 02:31:00;;;;;;;104.75;76.43;;;-0.60;24.60;;;;;;5074805;28;20199;-70
2022/12/11 02:33:36;;;;;;;102.22;79.85;;;-0.50;23.90;;;;;;5074274;28;20660;-69
2022/12/11 02:36:03;;;;;;;103.00;81.45;;;-0.50;23.60;;;;;;5074656;28;20192;-70
2022/12/11 02:38:33;;;;;;;97.25;75.20;;;-0.40;23.50;;;;;;5074572;28;20616;-70
2022/12/11 02:41:01;;;;;;;96.10;67.72;;;-0.40;23.50;;;;;;5074548;28;20216;-70
2022/12/11 02:43:31;;;;;;;96.00;62.22;;;-0.50;24.00;;;;;;5074328;28;20179;-70
2022/12/11 02:45:57;;;;;;;93.95;64.32;;;-0.50;24.20;;;;;;5074563;28;20639;-70
2022/12/11 02:48:23;;;;;;;103.00;85.10;;;-0.50;24.50;;;;;;5074356;28;20200;-70
2022/12/11 02:50:54;;;;;;;93.27;69.30;;;-0.60;24.30;;;;;;5074688;28;20263;-70
2022/12/11 02:53:23;;;;;;;103.47;87.70;;;-0.80;24.70;;;;;;5073941;28;20419;-70
2022/12/11 02:55:55;;;;;;;97.32;62.88;;;-1.00;24.70;;;;;;5073765;28;20600;-70
2022/12/11 02:58:24;;;;;;;105.55;80.50;;;-1.10;24.90;;;;;;5073693;28;20208;-70
2022/12/11 03:00:50;;;;;;;100.78;65.85;;;-1.20;25.90;;;;;;5089635;28;20234;-70
2022/12/11 03:03:16;;;;;;;99.20;65.53;;;-1.40;26.40;;;;;;5073566;28;20208;-72
2022/12/11 03:05:42;;;;;;;105.03;73.60;;;-1.30;26.90;;;;;;5074435;28;20177;-70
2022/12/11 03:08:08;;;;;;;93.07;63.42;;;-1.40;26.70;;;;;;5074014;28;20204;-71
2022/12/11 03:10:33;;;;;;;108.03;88.17;;;-1.50;27.80;;;;;;5073301;28;20194;-71
2022/12/11 03:12:59;;;;;;;101.33;68.87;;;-1.50;26.90;;;;;;5088401;28;20202;-71
2022/12/11 03:15:56;;;;;;;102.43;84.25;;;-1.50;28.20;;;;;;5073131;28;20211;-71
2022/12/11 03:18:40;;;;;;;102.85;61.30;;;-1.60;27.40;;;;;;5069553;28;20224;-71
2022/12/11 03:21:17;;;;;;;110.93;79.20;;;-1.70;27.70;;;;;;5073346;28;20536;-70
2022/12/11 03:23:50;;;;;;;95.15;54.92;;;-1.70;28.20;;;;;;5072682;28;20542;-71
2022/12/11 03:26:19;;;;;;;110.35;83.40;;;-1.60;29.30;;;;;;5072601;28;20204;-71
2022/12/11 03:28:57;;;;;;;108.00;77.28;;;-1.40;28.30;;;;;;5072837;28;20180;-71
2022/12/11 03:31:30;;;;;;;103.85;90.82;;;-1.40;27.50;;;;;;5072620;28;20173;-71
2022/12/11 03:33:59;;;;;;;98.13;74.13;;;-1.30;27.20;;;;;;5072620;28;20176;-71
2022/12/11 03:36:30;;;;;;;107.50;91.57;;;-1.10;26.10;;;;;;5072616;28;20187;-71
2022/12/11 03:39:00;;;;;;;107.93;89.28;;;-1.00;25.50;;;;;;5072503;28;20209;-71
2022/12/11 03:41:28;;;;;;;100.45;62.80;;;-1.00;25.40;;;;;;5072792;28;20204;-71
2022/12/11 03:43:56;;;;;;;106.35;84.97;;;-1.10;25.10;;;;;;5072201;28;20172;-71
2022/12/11 03:46:26;;;;;;;99.45;71.88;;;-1.10;25.50;;;;;;5072246;28;20169;-71
2022/12/11 03:48:55;;;;;;;101.97;71.30;;;-1.10;24.70;;;;;;5072542;28;20180;-71
2022/12/11 03:51:23;;;;;;;109.82;84.60;;;-1.10;24.50;;;;;;5072226;28;20187;-71
2022/12/11 03:53:49;;;;;;;101.72;75.72;;;-1.30;24.40;;;;;;5072209;28;20607;-71
2022/12/11 03:56:16;;;;;;;106.32;94.53;;;-1.40;25.00;;;;;;5072106;28;20212;-71
2022/12/11 03:58:42;;;;;;;99.07;66.10;;;-1.40;25.10;;;;;;5072135;28;20201;-71
2022/12/11 04:01:09;;;;;;;97.60;66.00;;;-1.50;24.80;;;;;;5072360;28;20659;-71
2022/12/11 04:03:35;;;;;;;110.82;92.70;;;-1.60;25.20;;;;;;5071949;28;20647;-71
2022/12/11 04:06:01;;;;;;;105.50;77.47;;;-1.70;25.40;;;;;;5071505;28;20272;-71
2022/12/11 04:08:26;;;;;;;91.37;54.83;;;-1.70;26.20;;;;;;5072039;28;20211;-71
2022/12/11 04:11:33;;;;;;;104.33;74.07;;;-1.90;26.20;;;;;;5071984;28;20211;-71
2022/12/11 04:13:39;;;;;;;99.95;69.60;;;-1.90;27.20;;;;;;5071727;28;20214;-69
2022/12/11 04:16:04;;;;;;;95.38;55.90;;;-2.10;26.70;;;;;;5072014;28;20229;-71
2022/12/11 04:24:14;;;;;;;98.50;70.32;;;-2.20;28.20;;;;;;5072328;28;20268;-70
2022/12/11 04:26:39;;;;;;;100.10;64.40;;;-2.30;29.10;;;;;;5071761;28;20200;-71
2022/12/11 04:29:05;;;;;;;100.37;73.07;;;-2.40;28.30;;;;;;5071892;28;20191;-71
2022/12/11 04:31:31;;;;;;;98.10;58.73;;;-2.50;29.30;;;;;;5071620;28;20427;-71
2022/12/11 04:33:56;;;;;;;89.97;41.37;;;-2.40;29.40;;;;;;5071641;28;20179;-71
2022/12/11 04:36:22;;;;;;;98.93;66.07;;;-2.30;29.50;;;;;;5071828;28;20652;-71
2022/12/11 04:38:48;;;;;;;96.50;51.10;;;-2.30;29.20;;;;;;5071686;28;20212;-71
2022/12/11 04:41:14;;;;;;;105.97;71.07;;;-2.20;29.70;;;;;;5071704;28;20180;-71
2022/12/11 04:43:40;;;;;;;101.93;61.97;;;-2.20;29.90;;;;;;5087103;28;20663;-71
2022/12/11 04:46:07;;;;;;;98.33;70.33;;;-2.10;29.80;;;;;;5071750;28;20208;-71
2022/12/11 04:48:33;;;;;;;101.35;72.05;;;-2.00;29.40;;;;;;5071475;28;20199;-71
2022/12/11 04:50:59;;;;;;;108.28;90.07;;;-2.00;29.50;;;;;;5071635;28;20266;-71
2022/12/11 04:53:25;;;;;;;108.77;84.97;;;-1.90;29.00;;;;;;5071381;28;20320;-71
2022/12/11 04:55:51;;;;;;;101.68;78.25;;;-2.00;28.60;;;;;;5071582;28;20184;-71
2022/12/11 04:58:16;;;;;;;89.33;42.33;;;-2.00;28.50;;;;;;5071481;28;20262;-71
2022/12/11 05:00:42;;;;;;;103.70;78.53;;;-2.10;28.20;;;;;;5071522;28;20645;-71
2022/12/11 05:03:08;;;;;;;105.07;83.60;;;-2.10;28.10;;;;;;5071205;28;20187;-71
2022/12/11 05:05:33;;;;;;;100.77;59.33;;;-2.10;28.80;;;;;;5071591;28;20645;-71
2022/12/11 05:07:59;;;;;;;112.67;88.87;;;-2.10;28.50;;;;;;5071364;28;20242;-71
2022/12/11 05:10:24;;;;;;;96.90;59.13;;;-2.00;28.40;;;;;;5071526;28;20185;-71
2022/12/11 05:12:50;;;;;;;96.33;61.30;;;-2.00;28.50;;;;;;5071177;28;20230;-71
2022/12/11 05:15:15;;;;;;;93.50;53.77;;;-2.00;28.20;;;;;;5071445;28;20183;-71
2022/12/11 05:17:41;;;;;;;97.47;54.27;;;-2.00;27.90;;;;;;5072706;28;20215;-70
2022/12/11 05:20:08;;;;;;;101.80;66.07;;;-2.00;28.00;;;;;;5075211;28;20197;-71
2022/12/11 05:22:34;;;;;;;91.60;41.78;;;-1.90;28.00;;;;;;5074879;28;20526;-71
2022/12/11 05:24:59;;;;;;;111.20;80.17;;;-1.90;28.00;;;;;;5075148;28;20255;-71
2022/12/11 05:27:25;;;;;;;110.13;80.90;;;-1.80;28.10;;;;;;5101301;22;20787;-70
2022/12/11 05:29:50;;;;;;;103.03;64.73;;;-1.80;28.10;;;;;;5082861;28;20540;-69
2022/12/11 05:32:16;;;;;;;99.63;54.17;;;-1.80;28.00;;;;;;5081582;28;20176;-68
2022/12/11 05:34:41;;;;;;;101.50;60.27;;;-1.80;28.10;;;;;;5098073;28;20376;-69
2022/12/11 05:37:07;;;;;;;99.77;85.70;;;-1.70;28.10;;;;;;5082550;28;20196;-70
2022/12/11 05:39:33;;;;;;;101.83;66.37;;;-1.70;28.20;;;;;;5083292;28;20195;-69
2022/12/11 05:41:58;;;;;;;104.77;77.27;;;-1.60;27.70;;;;;;5082576;28;20206;-69
2022/12/11 05:44:24;;;;;;;104.80;89.33;;;-1.60;27.10;;;;;;5083399;28;20226;-68
2022/12/11 05:46:50;;;;;;;98.40;71.97;;;-1.60;27.00;;;;;;5098637;28;20208;-68
2022/12/11 05:49:15;;;;;;;93.83;65.03;;;-1.60;26.30;;;;;;5082766;28;20437;-69
2022/12/11 05:51:42;;;;;;;94.83;76.60;;;-1.60;25.70;;;;;;5097322;28;20186;-68
2022/12/11 05:54:09;;;;;;;102.05;90.20;;;-1.60;25.60;;;;;;5080969;28;20237;-69
2022/12/11 05:56:35;;;;;;;98.28;79.28;;;-1.60;25.60;;;;;;5081425;28;20207;-68
2022/12/11 05:59:03;;;;;;;93.45;63.13;;;-1.60;25.00;;;;;;5081736;28;20235;-67
2022/12/11 06:01:38;;;;;;;102.35;82.15;;;-1.60;24.70;;;;;;5096695;28;20188;-67
2022/12/11 06:04:05;;;;;;;96.90;66.30;;;-1.60;24.70;;;;;;5081400;28;20178;-67
2022/12/11 06:06:31;;;;;;;95.70;80.93;;;-1.70;24.50;;;;;;5081535;28;20186;-68
2022/12/11 06:08:57;;;;;;;92.93;66.03;;;-1.60;25.40;;;;;;5097679;28;20220;-68
2022/12/11 06:11:25;;;;;;;98.15;73.97;;;-1.60;24.90;;;;;;5081793;28;20417;-68
2022/12/11 06:13:51;;;;;;;105.97;92.10;;;-1.60;24.90;;;;;;5081714;28;20195;-68
2022/12/11 06:16:17;;;;;;;97.40;73.63;;;-1.60;24.60;;;;;;5082301;28;20531;-69
2022/12/11 06:18:44;;;;;;;107.75;96.57;;;-1.60;24.30;;;;;;5082431;28;20213;-68
2022/12/11 06:21:12;;;;;;;96.50;55.88;;;-1.70;24.10;;;;;;5081488;28;20181;-68
2022/12/11 06:23:38;;;;;;;91.32;51.90;;;-1.70;24.10;;;;;;5081309;28;20605;-68
2022/12/11 06:26:03;;;;;;;95.60;60.43;;;-1.80;24.10;;;;;;5082580;28;20216;-67
2022/12/11 06:28:29;;;;;;;97.60;86.83;;;-1.70;24.10;;;;;;5096098;28;20239;-68
2022/12/11 06:30:57;;;;;;;92.47;65.27;;;-1.90;24.00;;;;;;5080130;28;20641;-68
2022/12/11 06:33:24;;;;;;;86.78;43.22;;;-2.00;23.90;;;;;;5081638;28;20589;-68
2022/12/11 06:35:49;;;;;;;85.55;45.10;;;-2.10;23.80;;;;;;5081528;28;20454;-68
2022/12/11 06:38:15;;;;;;;83.10;38.60;;;-2.30;24.60;;;;;;5096693;28;20223;-68
2022/12/11 06:40:40;;;;;;;92.50;54.23;;;-2.40;25.00;;;;;;5081428;28;20633;-68
2022/12/11 06:43:06;;;;;;;82.23;33.57;;;-2.50;25.70;;;;;;5081706;28;20592;-67
2022/12/11 06:45:31;;;;;;;94.90;67.67;;;-2.60;26.00;;;;;;5081873;28;20610;-70
2022/12/11 06:47:57;;;;;;;81.20;40.03;;;-2.70;25.80;;;;;;5081973;28;20690;-69
2022/12/11 06:50:23;;;;;;;93.53;69.17;;;-2.70;26.10;;;;;;5082980;28;20191;-69
2022/12/11 06:52:48;;;;;;;84.77;52.77;;;-2.80;26.30;;;;;;5081789;28;20547;-68
2022/12/11 06:55:14;;;;;;;80.57;38.00;;;-2.90;26.40;;;;;;5082353;28;20197;-69
2022/12/11 06:57:40;;;;;;;85.43;53.53;;;-2.90;26.80;;;;;;5081827;28;20406;-69
2022/12/11 07:00:06;;;;;;;86.77;44.77;;;-3.00;26.70;;;;;;5097392;28;20179;-68
2022/12/11 07:02:31;;;;;;;88.50;47.22;;;-3.10;26.40;;;;;;5081401;28;20180;-69
2022/12/11 07:04:57;;;;;;;83.70;45.07;;;-3.10;27.20;;;;;;5081033;28;20243;-68
2022/12/11 07:07:23;;;;;;;83.30;40.13;;;-3.10;27.20;;;;;;5096102;28;20210;-68
2022/12/11 07:09:48;;;;;;;83.93;41.33;;;-3.10;27.30;;;;;;5080704;28;20206;-68
2022/12/11 07:12:15;;;;;;;81.53;36.40;;;-3.20;27.20;;;;;;5080613;28;20239;-69
2022/12/11 07:14:41;;;;;;;79.07;32.28;;;-3.20;27.70;;;;;;5079736;28;20579;-68
2022/12/11 07:17:06;;;;;;;79.13;28.53;;;-3.10;27.20;;;;;;5079735;28;20203;-68
2022/12/11 07:19:32;;;;;;;83.07;37.03;;;-3.10;27.60;;;;;;5096189;28;20251;-68
2022/12/11 07:21:57;;;;;;;81.97;35.23;;;-3.20;27.60;;;;;;5079817;28;20201;-69
2022/12/11 07:24:23;;;;;;;82.07;35.40;;;-3.20;28.00;;;;;;5095999;28;20663;-68
2022/12/11 07:26:48;;;;;;;87.20;34.17;;;-3.20;28.50;;;;;;5080088;28;20180;-69
2022/12/11 07:29:14;;;;;;;82.67;34.60;;;-3.20;28.40;;;;;;5080111;28;20643;-68
2022/12/11 07:31:39;;;;;;;84.30;32.60;;;-3.30;28.40;;;;;;5078302;28;20187;-69
2022/12/11 07:34:06;;;;;;;88.60;38.70;;;-3.30;28.30;;;;;;5078727;28;20185;-71
2022/12/11 07:36:32;;;;;;;84.85;35.38;;;-3.30;28.20;;;;;;5078570;28;20178;-69
2022/12/11 07:38:59;;;;;;;89.95;38.00;;;-3.30;28.90;;;;;;5078315;28;20206;-67
2022/12/11 07:41:27;;;;;;;89.47;33.38;;;-3.30;29.20;;;;;;5077552;28;20170;-68
2022/12/11 07:43:53;;;;;;;86.82;39.25;;;-3.20;28.70;;;;;;5078374;28;20177;-68
2022/12/11 07:46:22;;;;;;;94.85;40.92;;;-3.10;28.90;;;;;;5094429;28;20216;-68
2022/12/11 07:48:48;;;;;;;102.43;52.95;;;-2.90;28.50;;;;;;5078515;28;20699;-68
2022/12/11 07:51:16;;;;;;;97.35;54.50;;;-2.80;28.00;;;;;;5078644;28;20249;-68
2022/12/11 07:53:44;;;;;;;104.28;53.85;;;-2.70;28.40;;;;;;5079463;28;20182;-68
2022/12/11 07:56:10;;;;;;;99.07;56.58;;;-2.60;28.60;;;;;;5080358;28;20180;-69
2022/12/11 07:58:37;;;;;;;94.97;48.83;;;-2.60;27.50;;;;;;5080327;28;20614;-68
2022/12/11 08:01:11;;;;;;;85.68;35.28;;;-2.50;27.30;;;;;;5095021;28;20725;-68
2022/12/11 08:03:36;;;;;;;92.88;49.88;;;-2.50;26.60;;;;;;5078541;28;20234;-68
2022/12/11 08:06:02;;;;;;;103.13;59.43;;;-2.50;25.90;;;;;;5095774;28;20191;-70
2022/12/11 08:08:27;;;;;;;98.40;61.90;;;-2.40;26.50;;;;;;5097175;28;20373;-68
2022/12/11 08:10:53;;;;;;;91.70;52.97;;;-2.30;25.90;;;;;;5081656;28;20210;-69
2022/12/11 08:13:18;;;;;;;99.83;80.27;;;-2.30;24.50;;;;;;5097109;28;20645;-69
2022/12/11 08:15:44;;;;;;;84.00;40.13;;;-2.30;24.20;;;;;;5081190;28;20180;-69
2022/12/11 08:18:10;;;;;;;90.40;56.53;;;-2.40;23.70;;;;;;5097133;28;20209;-69
2022/12/11 08:20:38;;;;;;;81.67;43.00;;;-2.40;23.60;;;;;;5080238;28;20166;-69
2022/12/11 08:23:04;;;;;;;81.75;39.95;;;-2.40;23.30;;;;;;5080616;28;20198;-70
2022/12/11 08:25:29;;;;;;;82.30;48.22;;;-2.40;23.10;;;;;;5081637;28;20176;-68
2022/12/11 08:27:55;;;;;;;84.67;46.13;;;-2.40;23.20;;;;;;5080996;28;20216;-68
2022/12/11 08:30:20;;;;;;;105.10;85.43;;;-2.40;23.00;;;;;;5080939;28;20243;-68
2022/12/11 08:32:46;;;;;;;90.77;53.67;;;-2.50;22.40;;;;;;5079961;28;20188;-69
2022/12/11 08:35:11;;;;;;;77.33;29.57;;;-2.60;22.70;;;;;;5080855;28;20188;-68
2022/12/11 08:37:37;;;;;;;83.60;35.43;;;-2.50;23.00;;;;;;5084411;28;20211;-72
2022/12/11 08:40:03;;;;;;;83.77;41.43;;;-2.50;22.00;;;;;;5080941;28;20175;-72
2022/12/11 08:42:28;;;;;;;83.72;49.63;;;-2.60;21.30;;;;;;5081155;28;20658;-72
2022/12/11 08:44:54;;;;;;;85.07;42.07;;;-2.50;21.50;;;;;;5080656;28;20168;-68
2022/12/11 08:47:20;;;;;;;77.87;29.27;;;-2.40;21.10;;;;;;5080127;28;20270;-69
2022/12/11 08:49:45;;;;;;;97.17;53.90;;;-2.40;20.90;;;;;;5096643;28;20170;-68
2022/12/11 08:52:11;;;;;;;82.93;48.30;;;-2.30;21.30;;;;;;5098433;28;20202;-69
2022/12/11 08:54:37;;;;;;;82.43;44.70;;;-2.20;20.90;;;;;;5101733;28;20175;-69
2022/12/11 08:57:03;;;;;;;86.82;49.17;;;-2.10;20.40;;;;;;5085552;28;20195;-68
2022/12/11 08:59:28;;;;;;;96.33;78.07;;;-2.00;19.80;;;;;;5086250;28;20240;-69
2022/12/11 09:01:55;;;;;;;96.30;80.63;;;-2.00;19.80;;;;;;5086937;28;20211;-68
2022/12/11 09:04:23;;;;;;;103.13;90.20;;;-2.00;19.80;;;;;;5086837;28;20176;-69
2022/12/11 09:06:49;;;;;;;96.03;73.25;;;-1.90;19.90;;;;;;5086670;28;20540;-69
2022/12/11 09:09:15;;;;;;;94.77;76.07;;;-1.70;20.00;;;;;;5086838;28;20200;-69
2022/12/11 09:11:41;;;;;;;95.40;80.60;;;-1.60;19.10;;;;;;5085949;28;20189;-68
2022/12/11 09:14:06;;;;;;;93.07;75.97;;;-1.40;18.90;;;;;;5086866;28;20180;-69
2022/12/11 09:16:36;;;;;;;108.33;85.57;;;-1.20;19.00;;;;;;5085935;28;20476;-68
2022/12/11 09:19:02;;;;;;;92.72;67.55;;;-1.00;18.40;;;;;;5085946;28;20213;-70
2022/12/11 09:21:49;;;;;;;81.37;55.03;;;-0.80;17.20;;;;;;5086018;28;20661;-72
2022/12/11 09:24:15;;;;;;;88.43;56.92;;;-0.70;16.50;;;;;;5086810;28;20415;-69
2022/12/11 09:26:40;;;;;;;92.17;61.33;;;-0.50;16.20;;;;;;5102481;28;20177;-69
2022/12/11 09:29:06;;;;;;;92.27;56.53;;;-0.10;15.50;;;;;;5102490;28;20578;-70
2022/12/11 09:31:34;;;;;;;81.03;40.47;;;0.10;14.40;;;;;;5085798;28;20246;-68
2022/12/11 09:34:06;;;;;;;86.43;46.75;;;0.50;14.10;;;;;;5100745;28;20174;-72
2022/12/11 09:36:32;;;;;;;134.95;122.05;;;0.90;12.30;;;;;;5086369;28;20198;-70
2022/12/11 09:39:04;;;;;;;88.75;55.95;;;0.80;11.20;;;;;;5086369;28;20264;-69
2022/12/11 09:41:36;;;;;;;80.85;38.83;;;1.10;11.70;;;;;;5086410;28;20575;-72
2022/12/11 09:44:29;;;;;;;88.85;59.47;;;1.30;11.10;;;;;;5086137;28;20259;-69
2022/12/11 09:46:56;;;;;;;87.45;68.38;;;1.60;10.60;;;;;;5084925;28;20186;-69
2022/12/11 09:49:28;;;;;;;93.72;76.05;;;1.90;10.40;;;;;;5084057;28;20211;-69
2022/12/11 09:51:59;;;;;;;237.77;220.90;;;2.10;9.80;;;;;;5084902;28;20175;-69
2022/12/11 09:54:25;;;;;;;97.15;85.43;;;2.20;8.70;;;;;;5085449;28;20216;-68
2022/12/11 09:57:03;;;;;;;98.35;85.60;;;2.10;9.30;;;;;;5084585;28;20190;-69
2022/12/11 10:00:10;;;;;;;100.05;88.78;;;2.10;9.20;;;;;;5100402;28;20238;-69
2022/12/11 10:03:00;;;;;;;90.18;77.78;;;2.10;9.20;;;;;;5100890;28;20174;-68
2022/12/11 10:05:37;;;;;;;87.30;65.03;;;2.10;8.60;;;;;;5099578;28;20202;-69
2022/12/11 10:08:21;;;;;;;86.20;62.60;;;2.20;8.30;;;;;;5085608;28;20203;-69
2022/12/11 10:11:14;;;;;;;97.43;69.88;;;2.00;9.00;;;;;;5086098;28;20201;-70
2022/12/11 10:13:58;;;;;;;98.05;75.63;;;1.90;8.90;;;;;;5084331;28;20659;-69
2022/12/11 10:16:43;;;;;;;89.05;67.10;;;2.00;9.20;;;;;;5085813;28;20192;-69
2022/12/11 10:19:25;;;;;;;91.13;58.50;;;1.70;9.50;;;;;;5101340;28;20217;-70
2022/12/11 10:21:52;;;;;;;104.45;93.18;;;1.90;9.40;;;;;;5085077;28;20177;-68
2022/12/11 10:24:39;;;;;;;97.95;87.28;;;2.10;8.60;;;;;;5086147;28;20307;-69
2022/12/11 10:27:20;;;;;;;91.88;69.82;;;2.20;9.00;;;;;;5085478;28;20225;-69
2022/12/11 10:30:11;;;;;;;86.43;63.35;;;2.00;9.40;;;;;;5085389;28;20162;-69
2022/12/11 10:32:49;;;;;;;86.22;64.68;;;1.40;9.30;;;;;;5084888;28;20238;-69
2022/12/11 10:35:42;;;;;;;99.07;81.00;;;1.70;9.10;;;;;;5086153;28;20174;-68
2022/12/11 10:38:27;;;;;;;86.93;71.88;;;1.90;9.50;;;;;;5085234;28;20231;-68
2022/12/11 10:41:08;;;;;;;108.05;93.80;;;1.70;9.50;;;;;;5085208;28;20178;-69
2022/12/11 10:43:35;;;;;;;128.43;116.25;;;1.70;10.10;;;;;;5084098;28;20589;-70
2022/12/11 10:46:02;;;;;;;94.72;76.55;;;1.70;9.70;;;;;;5084332;28;20231;-69
2022/12/11 10:48:28;;;;;;;110.53;99.57;;;1.60;11.20;;;;;;5100334;28;20234;-70
2022/12/11 10:51:06;;;;;;;120.70;109.00;;;1.70;10.50;;;;;;5085332;28;20185;-69
2022/12/11 10:53:32;;;;;;;102.80;91.90;;;1.70;10.60;;;;;;5100388;28;20662;-68
2022/12/11 10:55:59;;;;;;;89.13;61.13;;;1.80;10.70;;;;;;5084303;28;20170;-70
2022/12/11 10:58:32;;;;;;;92.38;69.97;;;2.00;10.20;;;;;;5099652;28;20204;-69
2022/12/11 11:01:23;;;;;;;88.40;59.53;;;2.10;10.90;;;;;;5083794;28;20189;-70
2022/12/11 11:04:14;;;;;;;87.82;58.33;;;2.10;10.10;;;;;;5083808;28;20187;-68
2022/12/11 11:06:40;;;;;;;98.82;85.10;;;2.10;10.60;;;;;;5084552;28;20155;-68
2022/12/11 11:09:35;;;;;;;94.00;72.60;;;2.10;10.30;;;;;;5083334;28;20200;-69
2022/12/11 11:12:01;;;;;;;93.53;76.32;;;2.20;10.50;;;;;;5083455;28;20178;-69
2022/12/11 11:14:26;;;;;;;98.45;87.43;;;2.10;10.50;;;;;;5083522;28;20171;-68
2022/12/11 11:16:56;;;;;;;115.33;103.53;;;2.00;10.90;;;;;;5099023;28;20201;-70
2022/12/11 11:19:32;;;;;;;115.63;104.30;;;2.10;11.30;;;;;;5083289;28;20567;-70
2022/12/11 11:22:10;;;;;;;138.43;126.10;;;2.40;10.50;;;;;;5098131;28;20175;-69
2022/12/11 11:24:41;;;;;;;103.32;90.75;;;2.60;10.10;;;;;;5082832;28;20226;-68
2022/12/11 11:27:28;;;;;;;90.10;73.88;;;2.80;9.60;;;;;;5105929;22;20208;-72
2022/12/11 11:29:57;;;;;;;147.45;134.60;;;2.20;10.60;;;;;;5074196;28;20180;-71
2022/12/11 11:32:31;;;;;;;113.82;102.38;;;2.20;9.80;;;;;;5074020;28;20171;-71
2022/12/11 11:35:17;;;;;;;114.80;103.38;;;2.20;11.00;;;;;;5074076;28;20201;-70
2022/12/11 11:37:55;;;;;;;108.05;97.47;;;2.50;10.00;;;;;;5073592;28;20210;-70
2022/12/11 11:40:27;;;;;;;131.20;119.75;;;2.70;9.60;;;;;;5074881;28;20169;-71
2022/12/11 11:43:19;;;;;;;83.07;57.65;;;2.70;10.10;;;;;;5073823;28;20200;-71
2022/12/11 11:46:04;;;;;;;83.22;57.22;;;2.80;10.20;;;;;;5066670;28;20710;-71
2022/12/11 11:48:44;;;;;;;85.32;64.50;;;2.70;10.10;;;;;;5073522;28;20225;-71
2022/12/11 11:51:54;;;;;;;128.30;116.63;;;2.40;9.70;;;;;;5072873;28;20171;-71
2022/12/11 11:54:32;;;;;;;91.40;79.95;;;2.50;10.00;;;;;;5073790;28;20202;-71
2022/12/11 11:57:00;;;;;;;85.20;75.30;;;2.70;9.10;;;;;;5074427;28;20185;-71
2022/12/11 11:59:33;;;;;;;155.00;142.45;;;2.50;8.80;;;;;;5073857;28;20207;-71
2022/12/11 12:01:59;;;;;;;87.38;78.03;;;2.60;8.70;;;;;;5087593;28;20179;-71
2022/12/11 12:04:30;;;;;;;146.80;134.25;;;2.70;8.30;;;;;;5073866;28;20249;-71
2022/12/11 12:07:09;;;;;;;86.53;74.10;;;2.50;8.30;;;;;;5090261;28;20174;-71
2022/12/11 12:10:12;;;;;;;94.28;83.90;;;2.30;8.70;;;;;;5087775;28;20190;-71
2022/12/11 12:12:48;;;;;;;77.43;46.65;;;2.40;8.70;;;;;;5072577;28;20170;-71
2022/12/11 12:15:28;;;;;;;95.95;82.05;;;2.30;9.60;;;;;;5073189;28;20170;-70
2022/12/11 12:18:17;;;;;;;252.02;235.15;;;2.40;9.30;;;;;;5089480;28;20207;-71
2022/12/11 12:20:49;;;;;;;78.40;54.95;;;2.50;8.90;;;;;;5073632;28;20209;-71
2022/12/11 12:23:35;;;;;;;82.88;67.30;;;2.30;8.80;;;;;;5088400;28;20172;-71
2022/12/11 12:26:15;;;;;;;84.15;61.65;;;2.30;8.40;;;;;;5072943;28;20662;-71
2022/12/11 12:29:00;;;;;;;87.28;71.95;;;2.50;8.50;;;;;;5072334;28;20595;-71
2022/12/11 12:31:56;;;;;;;100.35;90.47;;;2.50;8.60;;;;;;5073128;28;20645;-71
2022/12/11 12:34:28;;;;;;;86.55;75.03;;;2.10;9.20;;;;;;5072836;28;20544;-71
2022/12/11 12:37:04;;;;;;;119.30;108.55;;;2.10;9.80;;;;;;5072495;28;20178;-71
2022/12/11 12:39:54;;;;;;;89.63;79.65;;;2.00;9.70;;;;;;5073051;28;20216;-71
2022/12/11 12:42:50;;;;;;;103.10;92.72;;;1.90;9.50;;;;;;5072746;28;20548;-71
2022/12/11 12:45:27;;;;;;;77.40;55.65;;;1.90;10.60;;;;;;5072892;28;20531;-71
2022/12/11 12:47:52;;;;;;;130.48;119.05;;;2.20;10.40;;;;;;5073082;28;20203;-71